createdAt,value
2018-09-23T00:01:55.363Z,14.90
2018-09-23T00:04:23.779Z,14.90
2018-09-23T00:06:52.179Z,14.90
2018-09-23T00:09:20.567Z,14.90
2018-09-23T00:11:48.977Z,14.80
2018-09-23T00:14:17.362Z,14.70
2018-09-23T00:16:45.812Z,14.70
2018-09-23T00:19:14.159Z,14.60
2018-09-23T00:21:42.678Z,14.60
2018-09-23T00:24:11.083Z,14.50
2018-09-23T00:26:39.502Z,14.40
2018-09-23T00:29:07.969Z,14.30
2018-09-23T00:31:36.422Z,14.20
2018-09-23T00:34:04.817Z,14.20
2018-09-23T00:36:33.284Z,14.10
2018-09-23T00:39:01.758Z,14.00
2018-09-23T00:41:30.175Z,14.00
2018-09-23T00:43:58.564Z,13.90
2018-09-23T00:46:27.582Z,13.80
2018-09-23T00:48:55.998Z,13.70
2018-09-23T00:51:24.418Z,13.70
2018-09-23T00:53:52.819Z,13.70
2018-09-23T00:56:21.271Z,13.70
2018-09-23T00:58:49.696Z,13.60
2018-09-23T01:01:18.159Z,13.60
2018-09-23T01:03:46.547Z,13.50
2018-09-23T01:06:15.016Z,13.50
2018-09-23T01:08:43.431Z,13.50
2018-09-23T01:11:11.880Z,13.40
2018-09-23T01:13:40.474Z,13.40
2018-09-23T01:16:09.001Z,13.50
2018-09-23T01:18:37.445Z,13.50
2018-09-23T01:21:06.603Z,13.50
2018-09-23T01:23:35.087Z,13.50
2018-09-23T01:26:03.504Z,13.50
2018-09-23T01:28:31.927Z,13.50
2018-09-23T01:31:00.326Z,13.40
2018-09-23T01:33:28.753Z,13.50
2018-09-23T01:35:57.140Z,13.40
2018-09-23T01:38:25.649Z,13.50
2018-09-23T01:40:54.070Z,13.40
2018-09-23T01:43:22.493Z,13.30
2018-09-23T01:45:50.939Z,13.30
2018-09-23T01:48:19.409Z,13.30
2018-09-23T01:50:47.826Z,13.30
2018-09-23T01:53:16.242Z,13.30
2018-09-23T01:55:44.639Z,13.20
2018-09-23T01:58:13.055Z,13.20
2018-09-23T02:00:41.512Z,13.10
2018-09-23T02:03:09.923Z,13.10
2018-09-23T02:05:38.304Z,13.20
2018-09-23T02:08:07.007Z,13.20
2018-09-23T02:10:35.424Z,13.20
2018-09-23T02:13:03.847Z,13.30
2018-09-23T02:15:32.254Z,13.20
2018-09-23T02:18:00.675Z,13.20
2018-09-23T02:20:29.056Z,13.20
2018-09-23T02:22:57.497Z,13.30
2018-09-23T02:25:26.013Z,13.20
2018-09-23T02:27:54.414Z,13.20
2018-09-23T02:30:22.839Z,13.20
2018-09-23T02:32:51.320Z,13.20
2018-09-23T02:35:21.620Z,13.10
2018-09-23T02:37:50.998Z,13.10
2018-09-23T02:40:19.415Z,13.10
2018-09-23T02:42:47.869Z,13.10
2018-09-23T02:45:16.286Z,13.10
2018-09-23T02:47:44.953Z,13.10
2018-09-23T02:50:13.427Z,13.00
2018-09-23T02:52:41.874Z,13.00
2018-09-23T02:55:10.341Z,13.00
2018-09-23T02:57:38.746Z,12.90
2018-09-23T03:00:07.363Z,12.90
2018-09-23T03:02:35.742Z,13.00
2018-09-23T03:05:04.228Z,13.00
2018-09-23T03:07:32.670Z,13.00
2018-09-23T03:10:01.119Z,13.00
2018-09-23T03:12:29.548Z,13.00
2018-09-23T03:14:57.963Z,13.00
2018-09-23T03:17:26.364Z,13.00
2018-09-23T03:19:54.788Z,13.00
2018-09-23T03:22:23.248Z,13.10
2018-09-23T03:24:51.676Z,13.00
2018-09-23T03:27:20.096Z,13.00
2018-09-23T03:29:48.515Z,12.90
2018-09-23T03:32:16.932Z,12.80
2018-09-23T03:34:45.658Z,13.00
2018-09-23T03:37:14.085Z,13.00
2018-09-23T03:39:42.526Z,12.90
2018-09-23T03:42:10.955Z,12.90
2018-09-23T03:44:39.375Z,12.90
2018-09-23T03:47:07.750Z,12.90
2018-09-23T03:49:36.228Z,13.00
2018-09-23T03:52:04.662Z,12.90
2018-09-23T03:54:33.067Z,12.80
2018-09-23T03:57:01.454Z,12.90
2018-09-23T03:59:29.874Z,12.90
2018-09-23T04:01:58.283Z,12.90
2018-09-23T04:04:26.966Z,12.90
2018-09-23T04:06:55.926Z,12.90
2018-09-23T04:09:24.318Z,13.00
2018-09-23T04:11:52.768Z,13.00
2018-09-23T04:14:21.180Z,13.00
2018-09-23T04:16:49.711Z,13.00
2018-09-23T04:19:18.149Z,13.00
2018-09-23T04:21:46.553Z,13.00
2018-09-23T04:24:14.947Z,13.00
2018-09-23T04:26:43.442Z,13.00
2018-09-23T04:29:11.834Z,13.00
2018-09-23T04:31:40.281Z,13.00
2018-09-23T04:34:08.828Z,13.10
2018-09-23T04:36:37.259Z,13.10
2018-09-23T04:39:07.838Z,13.10
2018-09-23T04:41:36.319Z,13.10
2018-09-23T04:44:04.788Z,13.10
2018-09-23T04:46:33.217Z,13.10
2018-09-23T04:49:01.656Z,13.20
2018-09-23T04:51:30.084Z,13.20
2018-09-23T04:53:58.530Z,13.30
2018-09-23T04:56:27.044Z,13.20
2018-09-23T04:58:55.464Z,13.20
2018-09-23T05:01:23.943Z,13.30
2018-09-23T05:03:52.340Z,13.30
2018-09-23T05:06:20.812Z,13.30
2018-09-23T05:08:49.238Z,13.30
2018-09-23T05:11:17.723Z,13.40
2018-09-23T05:13:46.166Z,13.40
2018-09-23T05:16:14.582Z,13.50
2018-09-23T05:18:42.980Z,13.50
2018-09-23T05:21:11.384Z,13.50
2018-09-23T05:23:39.871Z,13.50
2018-09-23T05:26:08.286Z,13.50
2018-09-23T05:28:36.703Z,13.60
2018-09-23T05:31:05.151Z,13.60
2018-09-23T05:33:33.814Z,13.60
2018-09-23T05:36:02.266Z,13.60
2018-09-23T05:38:30.708Z,13.60
2018-09-23T05:40:59.126Z,13.70
2018-09-23T05:43:27.667Z,13.70
2018-09-23T05:45:56.059Z,13.80
2018-09-23T05:48:24.516Z,13.80
2018-09-23T05:50:52.982Z,13.80
2018-09-23T05:53:21.417Z,13.80
2018-09-23T05:58:24.497Z,13.90
2018-09-23T06:00:54.596Z,14.00
2018-09-23T06:03:23.036Z,14.10
2018-09-23T06:05:51.554Z,14.10
2018-09-23T06:08:20.153Z,14.20
2018-09-23T06:10:48.595Z,14.20
2018-09-23T06:13:17.018Z,14.20
2018-09-23T06:15:45.418Z,14.30
2018-09-23T06:18:13.917Z,14.30
2018-09-23T06:20:42.335Z,14.40
2018-09-23T06:23:10.779Z,14.40
2018-09-23T06:25:40.248Z,14.50
2018-09-23T06:28:08.666Z,14.50
2018-09-23T06:30:37.073Z,14.60
2018-09-23T06:33:05.538Z,14.60
2018-09-23T06:35:33.931Z,14.70
2018-09-23T06:38:02.326Z,14.70
2018-09-23T06:40:30.805Z,14.80
2018-09-23T06:42:59.243Z,14.90
2018-09-23T06:45:27.618Z,15.00
2018-09-23T06:47:56.052Z,15.00
2018-09-23T06:50:24.446Z,15.10
2018-09-23T06:52:52.874Z,15.20
2018-09-23T06:55:21.470Z,15.40
2018-09-23T06:57:49.900Z,15.50
2018-09-23T07:00:18.285Z,15.70
2018-09-23T07:02:46.672Z,15.80
2018-09-23T07:05:15.075Z,15.90
2018-09-23T07:07:43.482Z,16.00
2018-09-23T07:10:11.894Z,16.20
2018-09-23T07:12:40.295Z,16.30
2018-09-23T07:15:08.494Z,16.40
2018-09-23T07:17:37.687Z,16.50
2018-09-23T07:20:06.782Z,16.60
2018-09-23T07:22:35.163Z,16.70
2018-09-23T07:25:03.663Z,16.70
2018-09-23T07:27:32.123Z,16.80
2018-09-23T07:30:00.797Z,16.90
2018-09-23T07:32:29.318Z,16.90
2018-09-23T07:34:57.778Z,17.00
2018-09-23T07:37:26.208Z,17.00
2018-09-23T07:39:54.687Z,17.20
2018-09-23T07:42:23.131Z,17.30
2018-09-23T07:44:51.630Z,17.30
2018-09-23T07:47:20.080Z,17.30
2018-09-23T07:49:48.541Z,17.40
2018-09-23T07:52:16.970Z,17.50
2018-09-23T07:54:45.402Z,17.60
2018-09-23T07:57:13.865Z,17.70
2018-09-23T07:59:42.406Z,17.70
2018-09-23T08:02:10.831Z,17.80
2018-09-23T08:04:39.266Z,17.80
2018-09-23T08:07:07.681Z,17.90
2018-09-23T08:09:36.186Z,18.00
2018-09-23T08:12:04.615Z,18.10
2018-09-23T08:14:33.516Z,18.20
2018-09-23T08:17:01.474Z,18.40
2018-09-23T08:19:30.012Z,18.50
2018-09-23T08:21:58.354Z,18.80
2018-09-23T08:24:26.867Z,19.00
2018-09-23T08:26:55.317Z,19.10
2018-09-23T08:29:23.781Z,19.20
2018-09-23T08:31:52.218Z,19.30
2018-09-23T08:34:20.598Z,19.30
2018-09-23T08:36:48.987Z,19.30
2018-09-23T08:39:17.386Z,19.40
2018-09-23T08:41:45.818Z,19.40
2018-09-23T08:44:14.202Z,19.50
2018-09-23T08:46:42.623Z,19.50
2018-09-23T08:49:11.030Z,19.50
2018-09-23T08:51:39.522Z,19.60
2018-09-23T08:54:07.947Z,19.70
2018-09-23T08:56:36.373Z,19.70
2018-09-23T08:59:04.817Z,19.80
2018-09-23T09:01:33.284Z,19.90
2018-09-23T09:04:01.685Z,20.00
2018-09-23T09:06:30.174Z,20.10
2018-09-23T09:08:58.606Z,20.20
2018-09-23T09:11:27.072Z,20.30
2018-09-23T09:13:55.434Z,20.30
2018-09-23T09:16:23.867Z,20.40
2018-09-23T09:18:52.287Z,20.40
2018-09-23T09:21:20.719Z,20.50
2018-09-23T09:23:49.156Z,20.30
2018-09-23T09:26:17.574Z,20.20
2018-09-23T09:28:45.979Z,20.30
2018-09-23T09:31:14.395Z,20.30
2018-09-23T09:33:42.930Z,20.20
2018-09-23T09:36:11.365Z,20.20
2018-09-23T09:38:40.675Z,20.20
2018-09-23T09:41:09.082Z,20.20
2018-09-23T09:43:37.539Z,20.30
2018-09-23T09:46:06.462Z,20.40
2018-09-23T09:48:34.945Z,20.40
2018-09-23T09:51:03.371Z,20.30
2018-09-23T09:53:31.944Z,20.20
2018-09-23T09:56:00.406Z,20.40
2018-09-23T09:58:29.169Z,20.40
2018-09-23T10:00:57.520Z,20.50
2018-09-23T10:03:25.995Z,20.50
2018-09-23T10:05:55.449Z,20.60
2018-09-23T10:08:24.006Z,20.60
2018-09-23T10:10:53.510Z,20.70
2018-09-23T10:13:21.946Z,20.70
2018-09-23T10:15:50.415Z,20.70
2018-09-23T10:18:18.873Z,20.80
2018-09-23T10:20:47.314Z,20.60
2018-09-23T10:23:15.845Z,20.70
2018-09-23T10:25:44.237Z,20.50
2018-09-23T10:28:12.706Z,20.60
2018-09-23T10:30:41.168Z,20.70
2018-09-23T10:33:09.630Z,20.70
2018-09-23T10:35:38.049Z,20.80
2018-09-23T10:38:06.489Z,20.90
2018-09-23T10:40:34.910Z,20.90
2018-09-23T10:43:03.358Z,21.00
2018-09-23T10:45:31.899Z,21.20
2018-09-23T10:48:00.336Z,21.40
2018-09-23T10:50:28.761Z,21.50
2018-09-23T10:52:57.213Z,21.70
2018-09-23T10:55:25.651Z,21.70
2018-09-23T10:57:54.192Z,21.80
2018-09-23T11:00:22.626Z,22.00
2018-09-23T11:02:51.076Z,21.90
2018-09-23T11:05:19.657Z,21.90
2018-09-23T11:07:48.092Z,21.90
2018-09-23T11:10:16.510Z,22.20
2018-09-23T11:12:44.943Z,22.30
2018-09-23T11:15:13.442Z,22.00
2018-09-23T11:17:41.858Z,22.40
2018-09-23T11:20:10.365Z,22.50
2018-09-23T11:22:38.784Z,22.50
2018-09-23T11:25:07.255Z,22.70
2018-09-23T11:27:35.666Z,22.80
2018-09-23T11:30:04.168Z,22.90
2018-09-23T11:32:32.665Z,23.00
2018-09-23T11:35:01.105Z,23.20
2018-09-23T11:37:29.498Z,23.40
2018-09-23T11:39:57.957Z,23.00
2018-09-23T11:42:26.417Z,23.10
2018-09-23T11:44:54.838Z,23.70
2018-09-23T11:47:23.222Z,23.80
2018-09-23T11:49:51.650Z,23.70
2018-09-23T11:52:20.067Z,23.80
2018-09-23T11:54:48.490Z,23.00
2018-09-23T11:57:16.874Z,23.00
2018-09-23T11:59:45.341Z,23.30
2018-09-23T12:02:13.896Z,23.60
2018-09-23T12:04:42.238Z,23.50
2018-09-23T12:07:10.628Z,23.50
2018-09-23T12:09:39.034Z,23.50
2018-09-23T12:12:07.467Z,23.60
2018-09-23T12:14:35.888Z,23.70
2018-09-23T12:17:04.287Z,23.80
2018-09-23T12:19:32.694Z,23.70
2018-09-23T12:22:01.167Z,23.80
2018-09-23T12:24:29.592Z,24.00
2018-09-23T12:26:58.023Z,24.00
2018-09-23T12:29:26.441Z,23.40
2018-09-23T12:31:54.838Z,23.60
2018-09-23T12:34:23.267Z,23.90
2018-09-23T12:36:51.681Z,23.70
2018-09-23T12:39:20.204Z,23.90
2018-09-23T12:41:48.962Z,23.70
2018-09-23T12:44:17.466Z,23.30
2018-09-23T12:46:46.051Z,23.60
2018-09-23T12:49:14.480Z,23.50
2018-09-23T12:51:42.896Z,23.50
2018-09-23T12:54:11.498Z,23.30
2018-09-23T12:56:39.964Z,22.90
2018-09-23T12:59:08.488Z,23.00
2018-09-23T13:01:37.041Z,23.00
2018-09-23T13:04:05.493Z,23.00
2018-09-23T13:06:33.896Z,22.80
2018-09-23T13:09:02.338Z,22.90
2018-09-23T13:11:30.811Z,22.90
2018-09-23T13:13:59.267Z,22.80
2018-09-23T13:16:27.710Z,22.80
2018-09-23T13:18:56.140Z,22.80
2018-09-23T13:21:24.664Z,22.80
2018-09-23T13:23:53.103Z,22.80
2018-09-23T13:26:21.618Z,22.80
2018-09-23T13:28:50.064Z,23.10
2018-09-23T13:31:19.990Z,23.20
2018-09-23T13:33:48.599Z,23.50
2018-09-23T13:36:17.149Z,23.70
2018-09-23T13:38:45.683Z,23.60
2018-09-23T13:41:14.149Z,23.60
2018-09-23T13:43:42.578Z,23.50
2018-09-23T13:46:11.098Z,23.20
2018-09-23T13:48:39.616Z,23.10
2018-09-23T13:51:08.140Z,23.00
2018-09-23T13:53:36.675Z,22.80
2018-09-23T13:56:05.169Z,22.80
2018-09-23T13:58:33.684Z,22.90
2018-09-23T14:01:02.267Z,22.80
2018-09-23T14:03:30.737Z,22.80
2018-09-23T14:05:59.404Z,22.70
2018-09-23T14:08:27.811Z,22.80
2018-09-23T14:10:56.250Z,22.80
2018-09-23T14:13:24.682Z,22.90
2018-09-23T14:15:53.764Z,23.00
2018-09-23T14:18:22.323Z,23.10
2018-09-23T14:20:50.767Z,23.10
2018-09-23T14:23:19.179Z,23.20
2018-09-23T14:25:47.626Z,23.20
2018-09-23T14:28:16.134Z,23.20
2018-09-23T14:30:44.571Z,23.30
2018-09-23T14:33:13.099Z,23.40
2018-09-23T14:35:41.653Z,23.40
2018-09-23T14:38:10.095Z,23.40
2018-09-23T14:40:38.631Z,23.30
2018-09-23T14:43:07.059Z,23.10
2018-09-23T14:45:35.563Z,23.00
2018-09-23T14:48:04.024Z,22.90
2018-09-23T14:50:32.522Z,22.90
2018-09-23T14:53:00.987Z,22.90
2018-09-23T14:55:29.468Z,22.80
2018-09-23T14:57:58.135Z,22.80
2018-09-23T15:00:26.881Z,22.70
2018-09-23T15:02:55.311Z,22.70
2018-09-23T15:05:23.791Z,22.70
2018-09-23T15:07:52.219Z,22.70
2018-09-23T15:10:20.666Z,22.60
2018-09-23T15:12:49.195Z,22.60
2018-09-23T15:15:17.655Z,20.10
2018-09-23T15:17:46.118Z,17.80
2018-09-23T15:20:14.604Z,16.80
2018-09-23T15:22:43.109Z,16.90
2018-09-23T15:25:11.598Z,16.80
2018-09-23T15:27:40.016Z,16.80
2018-09-23T15:30:08.491Z,16.70
2018-09-23T15:32:36.928Z,16.70
2018-09-23T15:35:05.418Z,16.70
2018-09-23T15:37:33.839Z,16.70
2018-09-23T15:40:02.310Z,16.80
2018-09-23T15:42:30.835Z,16.60
2018-09-23T15:44:59.236Z,16.60
2018-09-23T15:47:27.726Z,16.50
2018-09-23T15:49:56.134Z,16.50
2018-09-23T15:52:24.768Z,16.40
2018-09-23T15:54:53.215Z,16.40
2018-09-23T15:57:21.654Z,16.30
2018-09-23T15:59:50.121Z,16.30
2018-09-23T16:02:18.635Z,16.30
2018-09-23T16:04:47.123Z,16.20
2018-09-23T16:07:15.636Z,16.30
2018-09-23T16:09:44.190Z,16.40
2018-09-23T16:12:12.793Z,16.30
2018-09-23T16:14:41.230Z,16.30
2018-09-23T16:17:09.751Z,16.00
2018-09-23T16:19:38.167Z,16.00
2018-09-23T16:22:06.599Z,16.00
2018-09-23T16:24:34.998Z,15.70
2018-09-23T16:27:03.455Z,15.70
2018-09-23T16:29:31.926Z,15.60
2018-09-23T16:32:00.483Z,15.20
2018-09-23T16:34:28.919Z,15.10
2018-09-23T16:36:57.443Z,14.80
2018-09-23T16:39:27.015Z,14.70
2018-09-23T16:41:55.431Z,14.50
2018-09-23T16:44:23.832Z,14.50
2018-09-23T16:46:52.240Z,14.40
2018-09-23T16:49:20.664Z,14.20
2018-09-23T16:51:49.190Z,14.10
2018-09-23T16:54:17.648Z,14.20
2018-09-23T16:56:46.041Z,14.10
2018-09-23T16:59:14.428Z,14.00
2018-09-23T17:01:42.865Z,14.10
2018-09-23T17:04:11.343Z,14.00
2018-09-23T17:06:39.770Z,14.00
2018-09-23T17:09:09.274Z,14.00
2018-09-23T17:11:37.958Z,14.00
2018-09-23T17:14:06.586Z,13.90
2018-09-23T17:16:35.124Z,13.90
2018-09-23T17:19:03.555Z,13.80
2018-09-23T17:21:31.976Z,13.80
2018-09-23T17:24:00.462Z,13.80
2018-09-23T17:26:28.860Z,13.80
2018-09-23T17:28:57.395Z,13.80
2018-09-23T17:31:25.830Z,13.70
2018-09-23T17:33:54.317Z,13.70
2018-09-23T17:36:22.786Z,13.60
2018-09-23T17:38:51.236Z,13.60
2018-09-23T17:41:19.676Z,13.60
2018-09-23T17:43:48.111Z,13.50
2018-09-23T17:46:16.667Z,13.40
2018-09-23T17:48:45.102Z,13.40
2018-09-23T17:51:13.607Z,13.40
2018-09-23T17:53:42.157Z,13.40
2018-09-23T17:56:10.610Z,13.50
2018-09-23T17:58:39.124Z,13.40
2018-09-23T18:01:07.642Z,13.40
2018-09-23T18:03:36.131Z,13.30
2018-09-23T18:06:04.583Z,13.30
2018-09-23T18:08:33.034Z,13.40
2018-09-23T18:11:01.608Z,13.30
2018-09-23T18:13:30.079Z,13.40
2018-09-23T18:15:58.523Z,13.40
2018-09-23T18:18:26.970Z,13.30
2018-09-23T18:20:55.779Z,13.10
2018-09-23T18:23:24.249Z,13.20
2018-09-23T18:25:52.646Z,13.20
2018-09-23T18:28:21.081Z,13.30
2018-09-23T18:30:49.559Z,13.30
2018-09-23T18:33:18.058Z,13.30
2018-09-23T18:35:46.626Z,13.40
2018-09-23T18:38:15.118Z,13.20
2018-09-23T18:40:43.558Z,13.20
2018-09-23T18:43:12.009Z,13.10
2018-09-23T18:45:40.422Z,13.10
2018-09-23T18:48:09.742Z,13.00
2018-09-23T18:50:38.171Z,13.00
2018-09-23T18:53:11.784Z,12.90
2018-09-23T18:55:41.947Z,12.90
2018-09-23T18:58:10.541Z,13.00
2018-09-23T19:00:40.078Z,13.10
2018-09-23T19:03:09.197Z,13.00
2018-09-23T19:05:37.697Z,13.00
2018-09-23T19:08:06.276Z,13.00
2018-09-23T19:10:34.842Z,13.10
2018-09-23T19:13:08.803Z,13.00
2018-09-23T19:15:37.382Z,13.00
2018-09-23T19:18:05.922Z,12.90
2018-09-23T19:20:34.832Z,12.90
2018-09-23T19:23:10.100Z,12.80
2018-09-23T19:25:38.510Z,12.80
2018-09-23T19:28:06.958Z,12.70
2018-09-23T19:30:36.037Z,12.60
2018-09-23T19:33:04.457Z,12.60
2018-09-23T19:35:32.874Z,12.50
2018-09-23T19:38:01.592Z,12.60
2018-09-23T19:40:30.074Z,12.60
2018-09-23T19:42:58.511Z,12.60
2018-09-23T19:45:26.988Z,12.50
2018-09-23T19:47:55.407Z,12.50
2018-09-23T19:50:23.907Z,12.50
2018-09-23T19:52:52.327Z,12.50
2018-09-23T19:55:20.778Z,12.60
2018-09-23T19:57:49.363Z,12.60
2018-09-23T20:00:17.802Z,12.70
2018-09-23T20:02:46.202Z,12.60
2018-09-23T20:05:14.619Z,12.60
2018-09-23T20:07:43.019Z,12.60
2018-09-23T20:10:11.475Z,12.60
2018-09-23T20:12:39.902Z,12.60
2018-09-23T20:15:13.182Z,12.50
2018-09-23T20:17:41.581Z,12.50
2018-09-23T20:20:10.078Z,12.60
2018-09-23T20:22:38.458Z,12.70
2018-09-23T20:25:06.895Z,12.70
2018-09-23T20:27:35.486Z,12.60
2018-09-23T20:30:04.313Z,12.60
2018-09-23T20:32:32.690Z,12.60
2018-09-23T20:35:01.144Z,12.60
2018-09-23T20:37:29.538Z,12.50
2018-09-23T20:39:57.927Z,12.60
2018-09-23T20:42:26.306Z,12.60
2018-09-23T20:44:54.820Z,12.50
2018-09-23T20:47:23.190Z,12.50
2018-09-23T20:49:51.640Z,12.30
2018-09-23T20:52:20.058Z,12.40
2018-09-23T20:54:48.469Z,12.30
2018-09-23T20:57:16.916Z,12.40
2018-09-23T20:59:46.434Z,12.40
2018-09-23T21:02:14.940Z,12.30
2018-09-23T21:04:43.385Z,12.20
2018-09-23T21:07:11.928Z,12.20
2018-09-23T21:09:40.403Z,12.20
2018-09-23T21:12:10.910Z,12.30
2018-09-23T21:14:39.411Z,12.20
2018-09-23T21:17:07.852Z,12.10
2018-09-23T21:19:36.410Z,12.00
2018-09-23T21:22:04.799Z,12.10
2018-09-23T21:24:33.249Z,12.00
2018-09-23T21:27:01.623Z,11.90
2018-09-23T21:29:30.028Z,11.80
2018-09-23T21:31:58.507Z,11.80
2018-09-23T21:34:26.934Z,11.70
2018-09-23T21:36:55.338Z,11.60
2018-09-23T21:39:23.771Z,11.50
2018-09-23T21:41:52.358Z,11.40
2018-09-23T21:44:20.746Z,11.30
2018-09-23T21:46:49.199Z,11.30
2018-09-23T21:49:17.659Z,11.30
2018-09-23T21:51:46.076Z,11.20
2018-09-23T21:54:14.550Z,11.20
2018-09-23T21:56:42.970Z,11.30
2018-09-23T21:59:11.400Z,11.30
2018-09-23T22:01:39.939Z,11.20
2018-09-23T22:04:08.757Z,11.30
2018-09-23T22:06:37.169Z,11.40
2018-09-23T22:09:06.960Z,11.40
2018-09-23T22:11:35.359Z,11.40
2018-09-23T22:14:03.819Z,11.30
2018-09-23T22:16:32.237Z,11.40
2018-09-23T22:19:00.630Z,11.30
2018-09-23T22:21:29.247Z,11.20
2018-09-23T22:23:57.613Z,11.10
2018-09-23T22:26:25.999Z,11.10
2018-09-23T22:28:54.380Z,11.10
2018-09-23T22:31:22.786Z,11.10
2018-09-23T22:33:51.251Z,11.10
2018-09-23T22:36:19.678Z,11.10
2018-09-23T22:38:48.084Z,11.20
2018-09-23T22:41:16.538Z,11.20
2018-09-23T22:43:44.968Z,11.30
2018-09-23T22:46:13.432Z,11.20
2018-09-23T22:48:41.830Z,11.20
2018-09-23T22:51:10.302Z,11.10
2018-09-23T22:53:38.695Z,11.10
2018-09-23T22:56:07.434Z,11.10
2018-09-23T22:58:35.831Z,11.10
2018-09-23T23:01:04.308Z,11.20
2018-09-23T23:03:32.810Z,11.10
2018-09-23T23:06:01.235Z,11.20
2018-09-23T23:08:29.991Z,11.10
2018-09-23T23:10:58.467Z,11.10
2018-09-23T23:13:27.099Z,11.30
2018-09-23T23:15:55.529Z,11.30
2018-09-23T23:18:23.927Z,11.20
2018-09-23T23:20:52.356Z,11.20
2018-09-23T23:23:20.777Z,11.20
2018-09-23T23:25:49.263Z,11.30
2018-09-23T23:31:08.917Z,11.30
2018-09-23T23:33:38.494Z,11.30
2018-09-23T23:36:07.152Z,11.30
2018-09-23T23:38:35.994Z,11.30
2018-09-23T23:41:04.515Z,11.40
2018-09-23T23:43:33.014Z,11.20
2018-09-23T23:46:01.688Z,11.20
2018-09-23T23:48:32.344Z,11.30
2018-09-23T23:51:00.788Z,11.30
2018-09-23T23:53:29.446Z,11.30
2018-09-23T23:55:58.438Z,11.40
2018-09-23T23:58:27.050Z,11.30
